Time;durP1;ratioP1;P1;durP2;ratioP2;P2;SDS_P1;SDS_P2;PMS_P1;PMS_P2;Temp;Humidity;BMP_temperature;BMP_pressure;BME280_temperature;BME280_humidity;BME280_pressure;Samples;Min_cycle;Max_cycle;Signal;HPM_P1;HPM_P2
2021/10/22 04:00:33;;;;;;;7.17;1.93;;;2.90;96.30;;;;;;5914244;23;20990;-81
2021/10/22 04:02:59;;;;;;;5.37;1.90;;;2.90;96.30;;;;;;4973577;28;20414;-82
2021/10/22 04:05:24;;;;;;;16.27;1.83;;;2.90;96.30;;;;;;4973829;28;20179;-82
2021/10/22 04:07:49;;;;;;;5.17;1.27;;;2.90;96.30;;;;;;4973881;28;20702;-82
2021/10/22 04:10:15;;;;;;;10.00;2.03;;;2.90;96.30;;;;;;4973681;28;20182;-82
2021/10/22 04:12:40;;;;;;;12.20;1.20;;;3.00;96.30;;;;;;4973073;28;20599;-82
2021/10/22 04:15:07;;;;;;;8.90;2.77;;;3.00;96.30;;;;;;4976716;28;20201;-82
2021/10/22 04:17:32;;;;;;;7.90;3.37;;;2.90;96.30;;;;;;4976576;28;20201;-82
2021/10/22 04:19:57;;;;;;;6.03;2.47;;;2.90;96.30;;;;;;4983923;28;20971;-83
2021/10/22 04:56:03;;;;;;;11.10;1.83;;;2.50;96.30;;;;;;5177094;23;20499;-79
2021/10/22 04:58:28;;;;;;;5.37;2.07;;;2.50;96.30;;;;;;4954552;28;20415;-80
2021/10/22 05:00:54;;;;;;;8.30;1.70;;;2.50;96.30;;;;;;4952996;28;20208;-79
2021/10/22 05:03:20;;;;;;;8.87;1.40;;;2.50;96.30;;;;;;4952939;28;20179;-80
2021/10/22 05:05:45;;;;;;;10.23;1.53;;;2.40;96.30;;;;;;4952779;29;20179;-80
2021/10/22 05:08:11;;;;;;;13.97;1.90;;;2.40;96.30;;;;;;4952843;29;20555;-79
2021/10/22 05:10:36;;;;;;;5.63;2.33;;;2.50;96.30;;;;;;4952660;28;20298;-80
2021/10/22 05:13:02;;;;;;;5.77;1.60;;;2.50;96.30;;;;;;4952460;28;20191;-81
2021/10/22 05:15:27;;;;;;;9.07;1.50;;;2.60;96.30;;;;;;4954542;28;20519;-81
2021/10/22 05:17:53;;;;;;;6.10;1.50;;;2.70;96.30;;;;;;4954341;28;20565;-79
2021/10/22 05:20:19;;;;;;;6.30;1.30;;;2.70;96.30;;;;;;4953766;28;20186;-79
2021/10/22 05:22:45;;;;;;;9.90;1.77;;;2.60;96.30;;;;;;4953884;28;20187;-81
2021/10/22 05:25:11;;;;;;;10.70;1.93;;;2.60;96.30;;;;;;4957329;29;20706;-81
2021/10/22 05:27:38;;;;;;;5.23;1.30;;;2.60;96.30;;;;;;4958755;28;20270;-81
2021/10/22 05:30:06;;;;;;;6.47;1.50;;;2.70;96.30;;;;;;4958754;28;20934;-81
2021/10/22 05:32:31;;;;;;;7.60;1.67;;;2.60;96.30;;;;;;4957971;28;20445;-81
2021/10/22 05:34:57;;;;;;;13.13;2.63;;;2.80;96.30;;;;;;4957378;29;20906;-82
2021/10/22 05:37:22;;;;;;;8.53;1.50;;;2.70;96.30;;;;;;4959455;28;20175;-80
2021/10/22 05:39:48;;;;;;;12.30;1.90;;;2.80;96.30;;;;;;4960844;29;20187;-81
2021/10/22 05:42:13;;;;;;;6.97;1.70;;;2.80;96.30;;;;;;4960669;28;20199;-80
2021/10/22 05:44:39;;;;;;;17.50;2.07;;;2.80;96.30;;;;;;4961390;29;20274;-80
2021/10/22 05:47:05;;;;;;;4.50;1.43;;;2.70;96.30;;;;;;4961972;28;20186;-80
2021/10/22 05:49:31;;;;;;;9.80;2.00;;;2.60;96.30;;;;;;4963419;28;20206;-80
2021/10/22 05:51:56;;;;;;;4.30;1.60;;;2.60;96.30;;;;;;4963948;28;20782;-80
2021/10/22 05:54:22;;;;;;;6.90;1.30;;;2.70;96.30;;;;;;4965385;28;20227;-82
2021/10/22 05:56:49;;;;;;;10.07;1.77;;;2.80;96.30;;;;;;4964664;28;20164;-80
2021/10/22 05:59:14;;;;;;;7.33;1.57;;;2.80;96.30;;;;;;4962478;28;20197;-81
2021/10/22 06:01:40;;;;;;;8.40;1.43;;;2.80;96.30;;;;;;4983606;28;20441;-81
2021/10/22 06:04:05;;;;;;;4.60;1.73;;;3.00;96.30;;;;;;4989958;28;20178;-80
2021/10/22 06:06:31;;;;;;;6.10;1.60;;;3.30;96.30;;;;;;4987630;28;20174;-81
2021/10/22 06:08:59;;;;;;;4.93;1.53;;;3.60;96.30;;;;;;4984044;28;20264;-79
2021/10/22 06:11:24;;;;;;;11.63;1.93;;;3.80;96.30;;;;;;4986167;28;20191;-79
2021/10/22 06:13:50;;;;;;;12.23;2.23;;;4.30;96.30;;;;;;4986149;28;20945;-79
2021/10/22 06:16:16;;;;;;;4.47;1.37;;;4.50;96.30;;;;;;4981632;28;20175;-78
2021/10/22 06:18:46;;;;;;;6.23;1.60;;;5.10;96.30;;;;;;4975213;28;20425;-79
2021/10/22 06:23:54;;;;;;;6.23;1.37;;;5.90;96.30;;;;;;4940598;29;20470;-80
2021/10/22 06:26:25;;;;;;;8.27;1.57;;;6.20;96.30;;;;;;4955925;28;20835;-81
2021/10/22 06:28:54;;;;;;;11.50;2.27;;;6.70;96.30;;;;;;4976359;28;20457;-81
2021/10/22 06:31:20;;;;;;;4.97;1.30;;;6.90;96.30;;;;;;4977820;28;20433;-81
2021/10/22 06:33:46;;;;;;;10.30;3.40;;;7.70;96.30;;;;;;4978376;28;20416;-81
2021/10/22 06:36:11;;;;;;;8.70;1.70;;;7.50;96.30;;;;;;4978759;28;20418;-81
2021/10/22 06:38:37;;;;;;;10.13;2.07;;;7.90;96.30;;;;;;4978622;28;20538;-81
2021/10/22 06:41:04;;;;;;;3.70;1.47;;;8.10;96.30;;;;;;4977865;28;20194;-82
2021/10/22 06:43:30;;;;;;;7.20;1.80;;;8.20;96.30;;;;;;4978306;28;20700;-81
2021/10/22 06:45:56;;;;;;;9.20;2.20;;;8.40;96.30;;;;;;4978450;28;20455;-81
2021/10/22 06:48:21;;;;;;;3.80;1.60;;;8.00;96.30;;;;;;4978208;28;20485;-81
2021/10/22 06:50:47;;;;;;;6.23;1.63;;;7.30;96.30;;;;;;4978667;28;20538;-81
2021/10/22 06:53:13;;;;;;;2.97;1.60;;;7.00;96.30;;;;;;4977111;28;20595;-81
2021/10/22 06:55:39;;;;;;;9.27;1.43;;;6.60;96.30;;;;;;4968282;28;20466;-80
2021/10/22 06:58:05;;;;;;;6.47;1.90;;;6.10;96.30;;;;;;4958588;28;20182;-80
2021/10/22 07:00:32;;;;;;;8.20;1.47;;;5.70;96.30;;;;;;4958306;28;20414;-80
2021/10/22 07:02:57;;;;;;;4.50;1.40;;;5.40;96.30;;;;;;4956533;29;20426;-79
2021/10/22 07:05:47;;;;;;;7.00;1.80;;;5.20;96.30;;;;;;4958045;28;20421;-80
2021/10/22 07:08:13;;;;;;;3.03;1.17;;;4.90;96.30;;;;;;4956410;28;20217;-80
2021/10/22 07:10:39;;;;;;;7.40;1.47;;;4.80;96.30;;;;;;4956777;28;20517;-81
2021/10/22 07:13:04;;;;;;;9.33;1.87;;;4.80;96.30;;;;;;4954775;29;20662;-80
2021/10/22 07:15:30;;;;;;;14.03;1.63;;;4.90;96.30;;;;;;4956945;28;20418;-81
2021/10/22 07:17:57;;;;;;;5.40;1.70;;;4.80;96.30;;;;;;4956363;29;20179;-80
2021/10/22 07:20:29;;;;;;;8.30;1.73;;;4.90;96.30;;;;;;4955585;28;20429;-80
2021/10/22 07:23:03;;;;;;;6.77;2.30;;;5.00;96.30;;;;;;4937646;29;20416;-80
2021/10/22 07:25:29;;;;;;;5.87;1.43;;;5.00;96.30;;;;;;4936897;29;20427;-80
2021/10/22 07:27:55;;;;;;;2.17;1.23;;;5.10;96.30;;;;;;4948602;29;20486;-80
2021/10/22 07:30:21;;;;;;;10.37;2.07;;;5.00;96.30;;;;;;4956069;28;20411;-80
2021/10/22 07:32:47;;;;;;;5.00;1.73;;;4.90;96.30;;;;;;4956522;28;20203;-79
2021/10/22 07:35:14;;;;;;;4.87;1.77;;;4.90;96.30;;;;;;4956523;28;20175;-80
2021/10/22 07:37:40;;;;;;;4.97;1.90;;;5.00;96.30;;;;;;4956640;28;20422;-80
2021/10/22 07:40:07;;;;;;;11.10;1.37;;;5.00;96.30;;;;;;4957119;28;20782;-78
2021/10/22 07:42:33;;;;;;;5.93;2.53;;;5.20;96.30;;;;;;4954922;28;20302;-78
2021/10/22 07:45:00;;;;;;;8.70;2.00;;;5.40;96.30;;;;;;4954840;28;20426;-79
2021/10/22 07:47:31;;;;;;;6.60;1.63;;;5.50;96.30;;;;;;4957013;28;20450;-79
2021/10/22 07:49:56;;;;;;;8.53;1.50;;;5.60;96.30;;;;;;4955233;29;20943;-77
2021/10/22 07:52:25;;;;;;;4.37;1.40;;;5.60;96.30;;;;;;4956096;28;20465;-79
2021/10/22 07:54:54;;;;;;;10.50;2.03;;;5.60;96.30;;;;;;4955061;28;20197;-78
2021/10/22 07:57:23;;;;;;;7.20;1.73;;;5.60;96.30;;;;;;4956844;28;20422;-80
2021/10/22 07:59:49;;;;;;;7.20;1.70;;;5.60;96.30;;;;;;4955846;28;20766;-77
2021/10/22 08:02:16;;;;;;;6.27;1.60;;;5.70;96.30;;;;;;4955280;28;20577;-76
2021/10/22 08:04:45;;;;;;;5.67;1.77;;;5.90;96.30;;;;;;4955633;28;20175;-77
2021/10/22 08:07:16;;;;;;;7.27;1.93;;;5.80;96.30;;;;;;4955914;28;20881;-76
2021/10/22 08:09:43;;;;;;;12.23;2.23;;;6.00;96.30;;;;;;4956554;28;20414;-76
2021/10/22 08:12:10;;;;;;;13.20;2.30;;;6.00;96.30;;;;;;4954127;28;20438;-77
2021/10/22 08:14:36;;;;;;;6.80;1.63;;;6.20;96.30;;;;;;4956184;29;20913;-77
2021/10/22 08:17:02;;;;;;;7.57;1.63;;;6.40;96.30;;;;;;4956443;28;20407;-76
2021/10/22 08:19:27;;;;;;;3.57;1.20;;;6.50;96.30;;;;;;4954411;29;20757;-78
2021/10/22 08:24:32;;;;;;;7.60;2.00;;;6.30;96.30;;;;;;4955454;28;20182;-78
2021/10/22 08:27:00;;;;;;;5.00;1.63;;;6.40;96.30;;;;;;4959393;28;20411;-78
2021/10/22 08:29:27;;;;;;;10.23;2.10;;;6.50;96.30;;;;;;4961468;28;20465;-78
2021/10/22 08:31:52;;;;;;;6.17;2.03;;;6.40;96.30;;;;;;4954830;28;20513;-77
2021/10/22 08:34:18;;;;;;;3.40;1.50;;;6.40;96.30;;;;;;4957428;28;20502;-78
2021/10/22 08:36:44;;;;;;;8.27;1.70;;;6.40;96.30;;;;;;4969770;28;20602;-77
2021/10/22 08:39:11;;;;;;;2.70;1.20;;;6.60;96.30;;;;;;4962637;28;20713;-79
2021/10/22 08:41:37;;;;;;;13.23;2.80;;;6.80;96.30;;;;;;4953658;28;20443;-77
2021/10/22 08:44:03;;;;;;;5.33;1.60;;;7.00;96.30;;;;;;4956787;28;20480;-77
2021/10/22 08:46:32;;;;;;;9.00;2.17;;;6.70;96.30;;;;;;4961809;28;20422;-78
2021/10/22 08:48:58;;;;;;;8.60;1.70;;;6.70;96.30;;;;;;4953449;29;20466;-78
2021/10/22 08:51:25;;;;;;;7.77;1.80;;;6.40;96.30;;;;;;4954142;28;21053;-77
2021/10/22 08:53:50;;;;;;;9.87;2.07;;;6.30;96.30;;;;;;4957931;28;20430;-77
2021/10/22 08:56:17;;;;;;;6.27;1.43;;;6.30;96.30;;;;;;4973958;28;20515;-78
2021/10/22 08:58:43;;;;;;;7.87;1.90;;;6.40;96.30;;;;;;4973836;28;20181;-77
2021/10/22 09:01:08;;;;;;;9.20;2.17;;;6.60;96.30;;;;;;4973131;28;20433;-77
2021/10/22 09:03:39;;;;;;;7.97;1.83;;;6.80;96.30;;;;;;4973864;28;20253;-77
2021/10/22 09:06:12;;;;;;;8.40;1.70;;;6.90;96.30;;;;;;4972569;28;20182;-75
2021/10/22 09:08:44;;;;;;;8.20;1.30;;;7.10;96.30;;;;;;4973580;28;20941;-76
2021/10/22 09:11:30;;;;;;;5.63;2.03;;;7.80;96.30;;;;;;4956273;28;20989;-77
2021/10/22 09:14:13;;;;;;;8.07;1.90;;;8.40;96.30;;;;;;4954386;28;20383;-77
2021/10/22 09:16:49;;;;;;;8.43;1.40;;;8.60;96.30;;;;;;4954446;28;20422;-78
2021/10/22 09:19:34;;;;;;;8.93;1.33;;;8.80;96.30;;;;;;4954360;28;20510;-79
2021/10/22 09:22:19;;;;;;;5.47;1.83;;;9.10;96.30;;;;;;4953857;28;20426;-80
2021/10/22 09:24:53;;;;;;;8.83;1.93;;;9.00;96.30;;;;;;4953015;28;20832;-78
2021/10/22 09:27:39;;;;;;;3.73;1.33;;;9.60;96.30;;;;;;4954009;28;20410;-77
2021/10/22 09:30:25;;;;;;;7.30;1.60;;;8.90;96.30;;;;;;4954129;28;20468;-78
2021/10/22 09:32:52;;;;;;;7.00;1.37;;;9.60;96.30;;;;;;4953591;28;20394;-77
2021/10/22 09:35:46;;;;;;;5.27;1.70;;;10.40;96.30;;;;;;4954107;28;20407;-78
2021/10/22 09:38:21;;;;;;;3.50;1.50;;;10.20;96.30;;;;;;4954027;28;20773;-77
2021/10/22 09:40:55;;;;;;;4.20;1.43;;;10.00;96.30;;;;;;4954021;28;20433;-77
2021/10/22 09:43:34;;;;;;;3.93;1.43;;;10.10;96.30;;;;;;4953816;28;20393;-77
2021/10/22 09:46:11;;;;;;;8.07;2.00;;;10.10;96.30;;;;;;4954029;28;20466;-77
2021/10/22 09:48:38;;;;;;;9.03;1.90;;;10.20;96.30;;;;;;4954252;28;20521;-77
2021/10/22 09:51:29;;;;;;;5.40;1.80;;;10.80;96.30;;;;;;4953396;28;20915;-77
2021/10/22 09:54:10;;;;;;;8.47;1.50;;;10.90;95.00;;;;;;4951027;28;20422;-77
2021/10/22 09:56:37;;;;;;;6.27;1.80;;;10.10;96.30;;;;;;4954255;28;20405;-77
2021/10/22 09:59:10;;;;;;;5.03;1.53;;;10.20;96.30;;;;;;4954044;28;20825;-77
2021/10/22 10:01:42;;;;;;;2.93;1.43;;;9.80;96.30;;;;;;4953279;28;20418;-77
2021/10/22 10:04:10;;;;;;;7.53;2.37;;;9.00;96.30;;;;;;4953935;28;20410;-77
2021/10/22 10:06:36;;;;;;;13.47;2.00;;;8.90;96.30;;;;;;4953568;28;20453;-77
2021/10/22 10:09:04;;;;;;;6.33;1.30;;;9.20;96.30;;;;;;4953578;28;20457;-77
2021/10/22 10:11:30;;;;;;;6.87;2.00;;;8.60;96.30;;;;;;4953051;28;20517;-76
2021/10/22 10:13:58;;;;;;;12.40;1.83;;;8.60;96.30;;;;;;4953706;28;20421;-77
2021/10/22 10:16:26;;;;;;;5.33;1.40;;;8.50;96.30;;;;;;4952388;28;20415;-76
2021/10/22 10:19:09;;;;;;;3.90;1.40;;;8.80;96.30;;;;;;4952367;29;20454;-76
2021/10/22 10:21:42;;;;;;;5.37;1.47;;;9.00;96.30;;;;;;4952686;28;20443;-76
2021/10/22 10:24:10;;;;;;;5.07;1.23;;;9.30;96.30;;;;;;4953545;28;20407;-76
2021/10/22 10:26:35;;;;;;;5.00;1.50;;;9.10;96.30;;;;;;4955574;28;20450;-78
2021/10/22 10:29:04;;;;;;;5.47;2.10;;;9.20;96.30;;;;;;4956884;28;20553;-77
2021/10/22 10:31:31;;;;;;;3.53;1.30;;;10.00;96.30;;;;;;4953860;28;20289;-76
2021/10/22 10:33:58;;;;;;;5.10;1.57;;;10.70;96.30;;;;;;4950401;29;20419;-75
2021/10/22 10:36:44;;;;;;;6.00;1.10;;;10.80;96.30;;;;;;4953782;28;20462;-74
2021/10/22 10:39:09;;;;;;;7.57;1.60;;;10.60;93.30;;;;;;4950191;29;20410;-77
2021/10/22 10:41:35;;;;;;;5.63;1.50;;;10.80;96.30;;;;;;4950753;28;20430;-77
2021/10/22 10:44:25;;;;;;;5.90;1.67;;;10.30;94.20;;;;;;4954167;28;20175;-75
2021/10/22 10:46:51;;;;;;;3.57;1.30;;;9.50;96.30;;;;;;4952479;28;20179;-76
2021/10/22 10:49:56;;;;;;;3.27;1.30;;;9.10;96.30;;;;;;4953394;28;20491;-75
2021/10/22 10:52:37;;;;;;;9.13;1.20;;;8.70;96.30;;;;;;4956344;28;20190;-77
2021/10/22 10:55:40;;;;;;;10.23;1.40;;;8.50;96.10;;;;;;4956734;28;20996;-76
2021/10/22 10:58:09;;;;;;;9.80;1.43;;;8.40;96.30;;;;;;4956784;28;20930;-77
2021/10/22 11:00:42;;;;;;;3.90;1.23;;;8.80;96.30;;;;;;4956511;28;20438;-78
2021/10/22 11:03:10;;;;;;;5.57;1.10;;;8.70;96.30;;;;;;4954720;29;20419;-77
2021/10/22 11:05:43;;;;;;;32.70;2.20;;;8.80;95.70;;;;;;4955299;29;20429;-77
2021/10/22 11:08:19;;;;;;;5.13;1.40;;;8.90;94.00;;;;;;4956510;28;20459;-78
2021/10/22 11:11:09;;;;;;;2.87;1.30;;;9.00;95.30;;;;;;4956396;28;20435;-78
2021/10/22 11:13:49;;;;;;;5.00;1.40;;;9.30;94.40;;;;;;4956405;28;20490;-78
2021/10/22 11:16:21;;;;;;;3.70;1.20;;;9.60;95.20;;;;;;4955219;29;20436;-78
2021/10/22 11:19:11;;;;;;;5.17;1.40;;;9.70;92.90;;;;;;4954890;28;20949;-77
2021/10/22 11:21:41;;;;;;;5.57;1.40;;;9.80;93.40;;;;;;4955751;28;20430;-78
2021/10/22 11:24:12;;;;;;;7.00;1.20;;;10.00;91.90;;;;;;4955035;28;20421;-76
2021/10/22 11:26:38;;;;;;;8.30;1.30;;;10.50;90.50;;;;;;4955174;28;20415;-74
2021/10/22 11:29:16;;;;;;;9.70;2.83;;;10.40;92.00;;;;;;4956334;28;20830;-73
2021/10/22 11:31:45;;;;;;;6.90;1.60;;;10.60;89.90;;;;;;4955892;28;20265;-76
2021/10/22 11:34:29;;;;;;;4.00;1.30;;;10.40;90.60;;;;;;4956454;28;20414;-74
2021/10/22 11:37:05;;;;;;;7.40;1.83;;;10.10;89.70;;;;;;4956264;28;20395;-74
2021/10/22 11:39:34;;;;;;;5.83;1.43;;;10.30;91.40;;;;;;4956222;28;20395;-74
2021/10/22 11:42:18;;;;;;;6.97;1.77;;;10.30;92.50;;;;;;4955413;28;20437;-77
2021/10/22 11:44:59;;;;;;;2.90;1.23;;;9.80;92.50;;;;;;4954624;28;20418;-77
2021/10/22 11:47:36;;;;;;;9.27;1.40;;;9.30;94.50;;;;;;4955840;28;20461;-78
2021/10/22 11:50:24;;;;;;;7.03;1.60;;;9.40;94.80;;;;;;4955862;28;20497;-77
2021/10/22 11:53:14;;;;;;;8.60;1.43;;;9.00;94.30;;;;;;4955426;28;20418;-78
2021/10/22 11:56:01;;;;;;;6.70;1.70;;;9.00;96.30;;;;;;4956908;28;20453;-74
2021/10/22 11:58:35;;;;;;;8.73;1.33;;;8.70;96.10;;;;;;4958732;28;20399;-74
2021/10/22 12:01:02;;;;;;;3.87;1.43;;;8.70;96.30;;;;;;4955846;28;20446;-75
2021/10/22 12:03:40;;;;;;;4.80;1.30;;;9.00;96.30;;;;;;4954878;28;20421;-74
2021/10/22 12:06:15;;;;;;;4.20;1.40;;;9.10;96.30;;;;;;4954816;29;20964;-74
2021/10/22 12:08:40;;;;;;;3.10;1.40;;;8.70;96.30;;;;;;4957689;28;20465;-74
2021/10/22 12:11:06;;;;;;;2.60;1.00;;;8.60;96.30;;;;;;4954719;28;20494;-73
2021/10/22 12:13:33;;;;;;;4.17;1.60;;;8.50;96.30;;;;;;4955180;28;20814;-80
2021/10/22 12:16:26;;;;;;;2.60;1.07;;;8.30;96.30;;;;;;4953696;28;20202;-77
2021/10/22 12:18:58;;;;;;;2.83;1.00;;;8.20;96.30;;;;;;4965901;28;20484;-75
2021/10/22 12:21:25;;;;;;;9.43;2.07;;;8.30;96.30;;;;;;4973883;28;20440;-77
2021/10/22 12:24:00;;;;;;;5.93;1.60;;;8.30;96.30;;;;;;4969286;28;20454;-76
2021/10/22 12:26:27;;;;;;;9.23;1.20;;;8.30;96.30;;;;;;4954928;28;20485;-77
2021/10/22 12:29:05;;;;;;;4.80;1.90;;;8.20;96.30;;;;;;4953852;29;20454;-78
2021/10/22 12:31:33;;;;;;;5.43;1.30;;;8.20;96.30;;;;;;4953071;28;20485;-77
2021/10/22 12:34:12;;;;;;;5.43;1.57;;;8.40;96.30;;;;;;4953726;28;20423;-77
2021/10/22 12:36:40;;;;;;;4.23;1.53;;;8.30;96.30;;;;;;4953677;28;20773;-77
2021/10/22 12:39:26;;;;;;;5.07;1.20;;;8.40;96.30;;;;;;4953688;28;20407;-77
2021/10/22 12:41:52;;;;;;;5.60;1.30;;;8.30;96.30;;;;;;4954114;28;20431;-79
2021/10/22 12:44:19;;;;;;;4.67;1.27;;;8.40;96.30;;;;;;4953646;28;20469;-78
2021/10/22 12:46:52;;;;;;;4.40;1.20;;;8.40;96.30;;;;;;4954874;28;20466;-77
2021/10/22 12:49:25;;;;;;;6.50;2.13;;;8.20;96.30;;;;;;4954793;28;20825;-78
2021/10/22 12:51:55;;;;;;;7.13;1.20;;;8.10;96.30;;;;;;4954084;28;20849;-78
2021/10/22 12:54:21;;;;;;;7.63;1.57;;;8.10;96.30;;;;;;4953993;28;20419;-77
2021/10/22 12:56:54;;;;;;;3.37;1.33;;;8.00;96.30;;;;;;4953289;29;20777;-78
2021/10/22 12:59:25;;;;;;;6.00;1.30;;;8.00;96.30;;;;;;4953397;28;20473;-78
2021/10/22 13:01:53;;;;;;;9.07;1.43;;;8.00;96.30;;;;;;4952323;28;20435;-78
2021/10/22 13:04:25;;;;;;;7.27;1.40;;;8.00;96.30;;;;;;4952845;28;20430;-77
2021/10/22 13:07:21;;;;;;;3.87;1.10;;;7.90;96.30;;;;;;4954548;28;20390;-77
2021/10/22 13:09:51;;;;;;;3.90;1.20;;;7.80;96.30;;;;;;4953170;29;20462;-78
2021/10/22 13:20:23;;;;;;;6.70;1.20;;;7.60;96.30;;;;;;4955004;29;20446;-73
2021/10/22 13:22:49;;;;;;;7.20;1.27;;;7.60;96.30;;;;;;4954428;28;20405;-75
2021/10/22 13:25:15;;;;;;;4.00;1.63;;;7.70;96.30;;;;;;4953366;28;20450;-75
2021/10/22 13:27:41;;;;;;;8.50;1.93;;;7.70;96.30;;;;;;4953406;29;20458;-74
2021/10/22 13:30:17;;;;;;;5.00;1.20;;;7.70;96.30;;;;;;4954375;28;20254;-75
2021/10/22 13:32:45;;;;;;;5.13;1.10;;;7.70;96.30;;;;;;4953894;28;20182;-74
2021/10/22 13:35:12;;;;;;;6.40;1.33;;;7.70;96.30;;;;;;4952949;28;20459;-74
2021/10/22 13:37:39;;;;;;;12.03;1.80;;;7.70;96.30;;;;;;4969185;28;20594;-75
2021/10/22 13:40:06;;;;;;;7.53;1.40;;;7.80;96.30;;;;;;4973470;28;20864;-74
2021/10/22 13:42:32;;;;;;;8.43;1.80;;;7.70;96.30;;;;;;4971678;28;20429;-75
2021/10/22 13:44:57;;;;;;;5.57;1.60;;;7.70;96.30;;;;;;4973651;28;20409;-75
2021/10/22 13:47:23;;;;;;;5.77;1.60;;;7.70;96.30;;;;;;4973545;28;20409;-74
2021/10/22 13:49:48;;;;;;;4.93;1.67;;;7.60;96.30;;;;;;4954529;28;20210;-74
2021/10/22 13:52:14;;;;;;;4.73;1.50;;;7.60;96.30;;;;;;4953392;28;20203;-76
2021/10/22 13:54:39;;;;;;;3.90;1.03;;;7.60;96.30;;;;;;4954070;28;20211;-75
2021/10/22 13:57:05;;;;;;;5.87;1.60;;;7.60;96.30;;;;;;4955009;28;20758;-75
2021/10/22 13:59:36;;;;;;;10.97;1.50;;;7.60;96.30;;;;;;4955308;28;20230;-76
2021/10/22 14:02:03;;;;;;;10.03;1.63;;;7.60;96.30;;;;;;4953050;28;20203;-76
2021/10/22 14:04:29;;;;;;;7.63;1.40;;;7.60;96.30;;;;;;4971887;28;20450;-76
2021/10/22 14:06:54;;;;;;;7.77;1.67;;;7.60;96.30;;;;;;4973716;28;20461;-75
2021/10/22 14:09:20;;;;;;;5.40;1.23;;;7.50;96.30;;;;;;4960188;28;20465;-76
2021/10/22 14:11:55;;;;;;;4.37;1.30;;;7.50;96.30;;;;;;4953994;28;20198;-75
2021/10/22 14:14:48;;;;;;;2.83;1.20;;;7.50;96.30;;;;;;4954234;28;20171;-76
2021/10/22 14:30:18;;;;;;;3.90;1.50;;;8.20;96.30;;;;;;4960351;28;20410;-75
2021/10/22 14:32:43;;;;;;;5.90;1.40;;;8.30;96.30;;;;;;4956795;28;20398;-75
2021/10/22 14:35:09;;;;;;;6.47;1.30;;;8.30;96.30;;;;;;4958439;28;20182;-75
2021/10/22 14:37:36;;;;;;;4.20;1.33;;;8.20;96.30;;;;;;4949746;28;20318;-76
2021/10/22 14:40:08;;;;;;;8.63;1.60;;;8.00;96.30;;;;;;4948565;28;20186;-79
2021/10/22 14:42:35;;;;;;;3.77;1.40;;;7.90;96.30;;;;;;4958662;28;20564;-76
2021/10/22 14:45:04;;;;;;;5.43;1.17;;;7.90;96.30;;;;;;4946711;28;20521;-75
2021/10/22 14:48:16;;;;;;;7.57;1.73;;;7.90;96.30;;;;;;4966799;28;20445;-75
2021/10/22 14:52:47;;;;;;;5.20;1.40;;;7.70;96.30;;;;;;4958682;28;20438;-75
2021/10/22 14:55:29;;;;;;;8.20;1.60;;;7.60;96.30;;;;;;4956147;28;20238;-75
2021/10/22 14:57:57;;;;;;;3.97;1.30;;;7.60;96.30;;;;;;4951647;28;20426;-77
2021/10/22 15:00:25;;;;;;;8.80;1.80;;;7.80;96.30;;;;;;4959143;28;20429;-77
2021/10/22 15:02:51;;;;;;;7.67;2.20;;;7.90;96.30;;;;;;4975616;28;20848;-77
2021/10/22 15:05:17;;;;;;;29.13;16.00;;;7.90;96.30;;;;;;4955318;28;20467;-76
2021/10/22 15:07:43;;;;;;;12.10;5.60;;;7.80;96.30;;;;;;4938712;29;20667;-76
2021/10/22 15:10:10;;;;;;;8.00;2.70;;;7.80;96.30;;;;;;4958125;28;20421;-76
2021/10/22 15:12:36;;;;;;;8.27;2.43;;;7.70;96.30;;;;;;4957629;28;20872;-77
2021/10/22 15:15:04;;;;;;;6.53;1.50;;;7.70;96.30;;;;;;4958630;28;20424;-76
2021/10/22 15:17:30;;;;;;;5.07;1.40;;;7.60;96.30;;;;;;4956138;28;20448;-77
2021/10/22 15:19:56;;;;;;;3.50;1.40;;;7.60;96.30;;;;;;4969848;28;20434;-77
2021/10/22 15:22:22;;;;;;;9.90;1.27;;;7.60;96.30;;;;;;4963773;28;20453;-77
2021/10/22 15:24:47;;;;;;;4.93;1.57;;;7.60;96.30;;;;;;4957132;28;20864;-77
2021/10/22 15:27:13;;;;;;;10.17;1.97;;;7.60;96.30;;;;;;4956146;28;20183;-75
2021/10/22 15:29:39;;;;;;;10.03;1.53;;;7.60;96.30;;;;;;4950592;28;20835;-76
2021/10/22 15:32:05;;;;;;;4.63;1.47;;;7.70;96.30;;;;;;4954316;29;20280;-77
2021/10/22 15:34:30;;;;;;;4.60;1.10;;;7.60;96.30;;;;;;4956827;28;20159;-77
2021/10/22 15:36:57;;;;;;;4.60;1.70;;;7.50;96.30;;;;;;4955926;28;20189;-77
2021/10/22 15:39:23;;;;;;;5.67;1.30;;;7.40;96.30;;;;;;4956957;28;20179;-78
2021/10/22 15:41:48;;;;;;;2.80;1.00;;;7.40;96.30;;;;;;4971413;28;20500;-77
2021/10/22 15:44:14;;;;;;;4.83;1.20;;;7.50;96.30;;;;;;4976028;28;20595;-78
2021/10/22 15:46:47;;;;;;;3.53;1.10;;;7.50;96.30;;;;;;4974623;28;20189;-77
2021/10/22 15:49:12;;;;;;;8.37;1.73;;;7.40;96.30;;;;;;4974724;28;20256;-78
2021/10/22 15:51:39;;;;;;;5.40;1.30;;;7.50;96.30;;;;;;4974002;28;20445;-77
2021/10/22 15:54:06;;;;;;;5.67;1.50;;;7.40;96.30;;;;;;4976182;28;20166;-77
2021/10/22 15:56:31;;;;;;;6.17;1.80;;;7.40;96.30;;;;;;4973829;28;20430;-78
2021/10/22 15:58:57;;;;;;;2.50;1.00;;;7.40;96.30;;;;;;4975524;28;20487;-77
2021/10/22 16:01:22;;;;;;;4.37;1.33;;;7.40;96.30;;;;;;4974907;28;20198;-77
2021/10/22 16:03:48;;;;;;;3.67;1.73;;;7.40;96.30;;;;;;4975042;28;20264;-76
2021/10/22 16:06:16;;;;;;;8.33;1.67;;;7.30;96.30;;;;;;4975177;28;20735;-77
2021/10/22 16:09:06;;;;;;;4.90;1.53;;;7.30;96.30;;;;;;4966337;28;20245;-76
2021/10/22 16:11:48;;;;;;;4.00;1.50;;;7.30;96.30;;;;;;4954347;29;20439;-78
2021/10/22 16:14:39;;;;;;;5.33;2.07;;;7.30;96.30;;;;;;4954235;28;20422;-77
2021/10/22 16:17:04;;;;;;;4.97;1.30;;;7.30;96.30;;;;;;4954898;28;20418;-77
2021/10/22 16:19:31;;;;;;;7.90;1.33;;;7.30;96.30;;;;;;4953746;28;20513;-77
2021/10/22 16:21:57;;;;;;;4.83;1.23;;;7.30;96.30;;;;;;4953180;28;20443;-77
2021/10/22 16:24:23;;;;;;;4.30;1.10;;;7.30;96.30;;;;;;4953715;28;20422;-76
2021/10/22 16:26:48;;;;;;;10.53;1.80;;;7.30;96.30;;;;;;4953650;28;20178;-77
2021/10/22 16:29:15;;;;;;;3.50;1.30;;;7.20;96.30;;;;;;4954706;28;20812;-77
2021/10/22 16:31:41;;;;;;;10.17;1.73;;;7.20;96.30;;;;;;4965463;28;20229;-77
2021/10/22 16:36:52;;;;;;;4.97;1.40;;;7.20;96.30;;;;;;4957930;28;20407;-77
2021/10/22 16:39:21;;;;;;;2.80;1.10;;;7.20;96.30;;;;;;4958545;28;20411;-75
2021/10/22 16:41:47;;;;;;;5.33;2.27;;;7.30;96.30;;;;;;4957734;28;20195;-77
2021/10/22 16:44:12;;;;;;;1.90;1.00;;;7.30;96.30;;;;;;4955014;28;20410;-76
2021/10/22 16:46:38;;;;;;;3.83;2.10;;;7.20;96.30;;;;;;4953507;28;20210;-78
2021/10/22 16:49:03;;;;;;;6.83;1.60;;;7.20;96.30;;;;;;4953843;28;20205;-79
2021/10/22 16:51:29;;;;;;;5.13;1.20;;;7.20;96.30;;;;;;4953070;28;20195;-75
2021/10/22 16:53:55;;;;;;;2.60;1.30;;;7.30;96.30;;;;;;4954781;28;20238;-75
2021/10/22 16:56:20;;;;;;;2.77;1.10;;;7.30;96.30;;;;;;4954651;28;20241;-75
2021/10/22 16:58:46;;;;;;;4.93;1.63;;;7.30;96.30;;;;;;4966745;28;20193;-76
2021/10/22 17:01:14;;;;;;;10.00;1.40;;;7.40;96.30;;;;;;4973975;28;20194;-76
2021/10/22 17:03:40;;;;;;;8.77;1.37;;;7.30;96.30;;;;;;4975558;28;20158;-78
2021/10/22 17:06:06;;;;;;;2.70;0.90;;;7.30;96.30;;;;;;4973866;28;20480;-76
2021/10/22 17:08:32;;;;;;;5.93;1.60;;;7.30;96.30;;;;;;4974702;28;20555;-76
2021/10/22 17:10:57;;;;;;;5.03;1.10;;;7.30;96.30;;;;;;4974619;28;20214;-76
2021/10/22 17:13:23;;;;;;;7.60;1.17;;;7.30;96.30;;;;;;4974615;28;20449;-76
2021/10/22 17:15:48;;;;;;;3.97;1.10;;;7.30;96.30;;;;;;4973821;28;20551;-76
2021/10/22 17:18:14;;;;;;;2.27;1.27;;;7.40;96.30;;;;;;4974680;28;20710;-76
2021/10/22 17:20:39;;;;;;;5.70;1.33;;;7.30;96.30;;;;;;4974507;28;20198;-75
2021/10/22 17:23:05;;;;;;;5.00;1.43;;;7.30;96.30;;;;;;4973904;28;20185;-74
2021/10/22 17:25:31;;;;;;;5.37;1.10;;;7.30;96.30;;;;;;4964597;28;20189;-74
2021/10/22 17:27:57;;;;;;;6.70;1.57;;;7.30;96.30;;;;;;4956126;28;20709;-77
2021/10/22 17:30:23;;;;;;;4.03;1.27;;;7.30;96.30;;;;;;4953278;28;20708;-76
2021/10/22 17:32:51;;;;;;;3.80;1.20;;;7.30;96.30;;;;;;4952920;29;20269;-75
2021/10/22 17:35:16;;;;;;;5.33;1.70;;;7.30;96.30;;;;;;4954478;28;20462;-75
2021/10/22 17:37:42;;;;;;;3.10;1.13;;;7.30;96.30;;;;;;4954706;28;20411;-75
2021/10/22 17:40:08;;;;;;;4.97;1.33;;;7.30;96.30;;;;;;4954585;28;20253;-75
2021/10/22 17:42:34;;;;;;;4.10;1.30;;;7.30;96.30;;;;;;4954353;28;20191;-75
2021/10/22 17:45:01;;;;;;;2.17;1.00;;;7.30;96.30;;;;;;4954929;28;20422;-75
2021/10/22 17:47:26;;;;;;;4.83;1.30;;;7.30;96.30;;;;;;4955062;28;20167;-75
2021/10/22 17:49:52;;;;;;;3.87;1.30;;;7.30;96.30;;;;;;4951166;28;20481;-75
2021/10/22 17:52:18;;;;;;;4.30;1.27;;;7.30;96.30;;;;;;4972051;28;20204;-75
2021/10/22 17:54:43;;;;;;;4.73;2.07;;;7.30;96.30;;;;;;4969458;28;20217;-77
2021/10/22 17:57:09;;;;;;;4.83;1.20;;;7.30;96.30;;;;;;4961728;28;20284;-77
2021/10/22 17:59:34;;;;;;;5.33;2.40;;;7.30;96.30;;;;;;4965041;28;20174;-74
2021/10/22 18:02:00;;;;;;;12.07;3.20;;;7.30;96.30;;;;;;4972518;28;20611;-77
2021/10/22 18:04:26;;;;;;;6.80;1.50;;;7.30;96.30;;;;;;4973037;28;20282;-75
2021/10/22 18:06:52;;;;;;;4.90;2.00;;;7.30;96.30;;;;;;4958793;28;20179;-77
2021/10/22 18:09:17;;;;;;;2.20;1.10;;;7.30;96.30;;;;;;4957061;29;20559;-76
2021/10/22 18:11:44;;;;;;;4.30;1.13;;;7.20;96.30;;;;;;4958100;28;20218;-76